sensor_id;sensor_type;location;lat;lon;timestamp;P1;durP1;ratioP1;P2;durP2;ratioP2
18752;SDS011;9505;50.882;5.350;2023-04-15T00:00:40;20.98;;;4.57;;
18752;SDS011;9505;50.882;5.350;2023-04-15T00:03:06;17.58;;;4.05;;
18752;SDS011;9505;50.882;5.350;2023-04-15T00:05:32;19.73;;;4.43;;
18752;SDS011;9505;50.882;5.350;2023-04-15T00:07:58;27.48;;;4.80;;
18752;SDS011;9505;50.882;5.350;2023-04-15T00:10:25;24.20;;;5.68;;
18752;SDS011;9505;50.882;5.350;2023-04-15T00:12:51;22.17;;;4.90;;
18752;SDS011;9505;50.882;5.350;2023-04-15T00:15:17;19.65;;;4.70;;
18752;SDS011;9505;50.882;5.350;2023-04-15T00:17:43;16.45;;;4.32;;
18752;SDS011;9505;50.882;5.350;2023-04-15T00:20:09;19.83;;;4.90;;
18752;SDS011;9505;50.882;5.350;2023-04-15T00:22:35;17.48;;;4.72;;
18752;SDS011;9505;50.882;5.350;2023-04-15T00:25:00;20.65;;;4.90;;
18752;SDS011;9505;50.882;5.350;2023-04-15T00:27:26;14.95;;;4.07;;
18752;SDS011;9505;50.882;5.350;2023-04-15T00:29:52;22.63;;;5.20;;
18752;SDS011;9505;50.882;5.350;2023-04-15T00:32:17;14.38;;;4.50;;
18752;SDS011;9505;50.882;5.350;2023-04-15T00:34:44;11.93;;;4.22;;
18752;SDS011;9505;50.882;5.350;2023-04-15T00:37:10;20.45;;;5.10;;
18752;SDS011;9505;50.882;5.350;2023-04-15T00:39:36;14.77;;;4.78;;
18752;SDS011;9505;50.882;5.350;2023-04-15T00:42:03;18.27;;;5.03;;
18752;SDS011;9505;50.882;5.350;2023-04-15T00:44:29;19.70;;;4.82;;
18752;SDS011;9505;50.882;5.350;2023-04-15T00:46:55;16.38;;;5.18;;
18752;SDS011;9505;50.882;5.350;2023-04-15T00:49:21;18.55;;;4.85;;
18752;SDS011;9505;50.882;5.350;2023-04-15T00:51:47;13.07;;;4.30;;
18752;SDS011;9505;50.882;5.350;2023-04-15T00:54:13;21.52;;;4.95;;
18752;SDS011;9505;50.882;5.350;2023-04-15T00:56:39;16.88;;;4.50;;
18752;SDS011;9505;50.882;5.350;2023-04-15T00:59:05;20.65;;;4.80;;
18752;SDS011;9505;50.882;5.350;2023-04-15T01:01:33;13.43;;;3.88;;
18752;SDS011;9505;50.882;5.350;2023-04-15T01:04:02;21.38;;;4.43;;
18752;SDS011;9505;50.882;5.350;2023-04-15T01:06:29;16.55;;;4.32;;
18752;SDS011;9505;50.882;5.350;2023-04-15T01:08:56;18.02;;;4.43;;
18752;SDS011;9505;50.882;5.350;2023-04-15T01:11:22;17.98;;;3.83;;
18752;SDS011;9505;50.882;5.350;2023-04-15T01:13:49;17.73;;;4.47;;
18752;SDS011;9505;50.882;5.350;2023-04-15T01:16:16;20.88;;;4.65;;
18752;SDS011;9505;50.882;5.350;2023-04-15T01:18:42;18.67;;;4.38;;
18752;SDS011;9505;50.882;5.350;2023-04-15T01:21:07;17.23;;;4.57;;
18752;SDS011;9505;50.882;5.350;2023-04-15T01:23:35;12.38;;;3.85;;
18752;SDS011;9505;50.882;5.350;2023-04-15T01:26:02;18.17;;;5.10;;
18752;SDS011;9505;50.882;5.350;2023-04-15T01:28:28;22.15;;;5.53;;
18752;SDS011;9505;50.882;5.350;2023-04-15T01:31:05;25.33;;;4.43;;
18752;SDS011;9505;50.882;5.350;2023-04-15T01:33:31;15.13;;;4.07;;
18752;SDS011;9505;50.882;5.350;2023-04-15T01:35:57;16.60;;;4.35;;
18752;SDS011;9505;50.882;5.350;2023-04-15T01:38:22;16.48;;;3.97;;
18752;SDS011;9505;50.882;5.350;2023-04-15T01:40:50;17.65;;;4.68;;
18752;SDS011;9505;50.882;5.350;2023-04-15T01:43:16;16.13;;;4.15;;
18752;SDS011;9505;50.882;5.350;2023-04-15T01:45:41;18.45;;;4.57;;
18752;SDS011;9505;50.882;5.350;2023-04-15T01:48:07;18.58;;;4.80;;
18752;SDS011;9505;50.882;5.350;2023-04-15T01:50:33;20.52;;;4.28;;
18752;SDS011;9505;50.882;5.350;2023-04-15T01:53:00;17.92;;;4.28;;
18752;SDS011;9505;50.882;5.350;2023-04-15T01:55:26;22.05;;;4.57;;
18752;SDS011;9505;50.882;5.350;2023-04-15T01:57:51;16.23;;;3.92;;
18752;SDS011;9505;50.882;5.350;2023-04-15T02:00:17;19.30;;;3.95;;
18752;SDS011;9505;50.882;5.350;2023-04-15T02:02:43;21.83;;;4.78;;
18752;SDS011;9505;50.882;5.350;2023-04-15T02:05:08;22.02;;;4.22;;
18752;SDS011;9505;50.882;5.350;2023-04-15T02:07:34;16.40;;;4.45;;
18752;SDS011;9505;50.882;5.350;2023-04-15T02:10:01;17.08;;;4.55;;
18752;SDS011;9505;50.882;5.350;2023-04-15T02:12:28;18.45;;;4.20;;
18752;SDS011;9505;50.882;5.350;2023-04-15T02:14:53;14.65;;;3.47;;
18752;SDS011;9505;50.882;5.350;2023-04-15T02:17:19;10.73;;;3.45;;
18752;SDS011;9505;50.882;5.350;2023-04-15T02:19:45;12.82;;;3.53;;
18752;SDS011;9505;50.882;5.350;2023-04-15T02:22:12;15.07;;;4.03;;
18752;SDS011;9505;50.882;5.350;2023-04-15T02:24:42;16.30;;;3.85;;
18752;SDS011;9505;50.882;5.350;2023-04-15T02:27:08;18.05;;;3.85;;
18752;SDS011;9505;50.882;5.350;2023-04-15T02:29:33;15.68;;;3.88;;
18752;SDS011;9505;50.882;5.350;2023-04-15T02:31:59;14.90;;;3.80;;
18752;SDS011;9505;50.882;5.350;2023-04-15T02:34:25;17.05;;;3.65;;
18752;SDS011;9505;50.882;5.350;2023-04-15T02:36:51;13.20;;;3.30;;
18752;SDS011;9505;50.882;5.350;2023-04-15T02:39:21;12.60;;;3.10;;
18752;SDS011;9505;50.882;5.350;2023-04-15T02:41:47;13.38;;;3.70;;
18752;SDS011;9505;50.882;5.350;2023-04-15T02:44:16;15.25;;;3.75;;
18752;SDS011;9505;50.882;5.350;2023-04-15T02:46:44;9.77;;;3.28;;
18752;SDS011;9505;50.882;5.350;2023-04-15T02:49:14;17.33;;;3.67;;
18752;SDS011;9505;50.882;5.350;2023-04-15T02:51:40;16.08;;;3.88;;
18752;SDS011;9505;50.882;5.350;2023-04-15T02:54:06;14.38;;;3.75;;
18752;SDS011;9505;50.882;5.350;2023-04-15T02:56:32;20.20;;;3.95;;
18752;SDS011;9505;50.882;5.350;2023-04-15T02:58:58;13.93;;;3.78;;
18752;SDS011;9505;50.882;5.350;2023-04-15T03:01:24;13.95;;;3.85;;
18752;SDS011;9505;50.882;5.350;2023-04-15T03:03:50;24.77;;;4.28;;
18752;SDS011;9505;50.882;5.350;2023-04-15T03:06:16;13.85;;;3.20;;
18752;SDS011;9505;50.882;5.350;2023-04-15T03:08:41;17.60;;;4.18;;
18752;SDS011;9505;50.882;5.350;2023-04-15T03:11:07;7.78;;;3.22;;
18752;SDS011;9505;50.882;5.350;2023-04-15T03:13:32;17.92;;;3.95;;
18752;SDS011;9505;50.882;5.350;2023-04-15T03:15:58;14.35;;;3.60;;
18752;SDS011;9505;50.882;5.350;2023-04-15T03:18:24;17.52;;;4.00;;
18752;SDS011;9505;50.882;5.350;2023-04-15T03:20:49;17.23;;;3.67;;
18752;SDS011;9505;50.882;5.350;2023-04-15T03:23:15;11.52;;;3.15;;
18752;SDS011;9505;50.882;5.350;2023-04-15T03:25:41;20.98;;;3.35;;
18752;SDS011;9505;50.882;5.350;2023-04-15T03:28:06;12.18;;;3.35;;
18752;SDS011;9505;50.882;5.350;2023-04-15T03:30:32;21.60;;;3.92;;
18752;SDS011;9505;50.882;5.350;2023-04-15T03:32:58;17.48;;;3.85;;
18752;SDS011;9505;50.882;5.350;2023-04-15T03:35:23;14.27;;;3.20;;
18752;SDS011;9505;50.882;5.350;2023-04-15T03:37:49;9.93;;;3.17;;
18752;SDS011;9505;50.882;5.350;2023-04-15T03:40:15;16.17;;;4.43;;
18752;SDS011;9505;50.882;5.350;2023-04-15T03:42:40;14.27;;;3.20;;
18752;SDS011;9505;50.882;5.350;2023-04-15T03:45:06;16.23;;;3.30;;
18752;SDS011;9505;50.882;5.350;2023-04-15T03:47:32;14.10;;;3.70;;
18752;SDS011;9505;50.882;5.350;2023-04-15T03:49:57;15.10;;;4.22;;
18752;SDS011;9505;50.882;5.350;2023-04-15T03:52:23;19.33;;;4.13;;
18752;SDS011;9505;50.882;5.350;2023-04-15T03:54:49;10.73;;;3.60;;
18752;SDS011;9505;50.882;5.350;2023-04-15T03:57:15;14.88;;;3.30;;
18752;SDS011;9505;50.882;5.350;2023-04-15T03:59:40;12.98;;;3.80;;
18752;SDS011;9505;50.882;5.350;2023-04-15T04:02:06;10.48;;;3.20;;
18752;SDS011;9505;50.882;5.350;2023-04-15T04:04:32;16.60;;;4.00;;
18752;SDS011;9505;50.882;5.350;2023-04-15T04:06:57;16.55;;;3.97;;
18752;SDS011;9505;50.882;5.350;2023-04-15T04:09:23;13.23;;;4.07;;
18752;SDS011;9505;50.882;5.350;2023-04-15T04:11:49;13.32;;;3.58;;
18752;SDS011;9505;50.882;5.350;2023-04-15T04:14:15;17.92;;;3.92;;
18752;SDS011;9505;50.882;5.350;2023-04-15T04:16:40;12.38;;;3.58;;
18752;SDS011;9505;50.882;5.350;2023-04-15T04:19:06;16.98;;;3.75;;
18752;SDS011;9505;50.882;5.350;2023-04-15T04:21:32;16.90;;;3.72;;
18752;SDS011;9505;50.882;5.350;2023-04-15T04:23:58;16.17;;;4.25;;
18752;SDS011;9505;50.882;5.350;2023-04-15T04:26:24;20.27;;;4.28;;
18752;SDS011;9505;50.882;5.350;2023-04-15T04:28:49;16.10;;;3.97;;
18752;SDS011;9505;50.882;5.350;2023-04-15T04:31:15;22.50;;;4.80;;
18752;SDS011;9505;50.882;5.350;2023-04-15T04:33:41;15.80;;;3.95;;
18752;SDS011;9505;50.882;5.350;2023-04-15T04:36:06;17.58;;;3.92;;
18752;SDS011;9505;50.882;5.350;2023-04-15T04:38:32;26.83;;;4.85;;
18752;SDS011;9505;50.882;5.350;2023-04-15T04:40:57;15.10;;;4.00;;
18752;SDS011;9505;50.882;5.350;2023-04-15T04:43:23;17.88;;;3.92;;
18752;SDS011;9505;50.882;5.350;2023-04-15T04:45:49;6.22;;;2.85;;
18752;SDS011;9505;50.882;5.350;2023-04-15T04:48:14;16.58;;;4.13;;
18752;SDS011;9505;50.882;5.350;2023-04-15T04:50:40;9.60;;;3.47;;
18752;SDS011;9505;50.882;5.350;2023-04-15T04:53:06;14.15;;;3.75;;
18752;SDS011;9505;50.882;5.350;2023-04-15T04:55:32;19.08;;;4.45;;
18752;SDS011;9505;50.882;5.350;2023-04-15T04:58:00;13.15;;;3.90;;
18752;SDS011;9505;50.882;5.350;2023-04-15T05:00:26;19.90;;;5.00;;
18752;SDS011;9505;50.882;5.350;2023-04-15T05:02:53;19.95;;;4.32;;
18752;SDS011;9505;50.882;5.350;2023-04-15T05:05:18;22.63;;;4.53;;
18752;SDS011;9505;50.882;5.350;2023-04-15T05:07:44;11.88;;;3.80;;
18752;SDS011;9505;50.882;5.350;2023-04-15T05:10:10;14.60;;;3.97;;
18752;SDS011;9505;50.882;5.350;2023-04-15T05:12:35;19.67;;;4.28;;
18752;SDS011;9505;50.882;5.350;2023-04-15T05:15:02;13.10;;;4.13;;
18752;SDS011;9505;50.882;5.350;2023-04-15T05:17:29;18.17;;;4.60;;
18752;SDS011;9505;50.882;5.350;2023-04-15T05:19:55;18.65;;;4.70;;
18752;SDS011;9505;50.882;5.350;2023-04-15T05:22:21;19.83;;;4.63;;
18752;SDS011;9505;50.882;5.350;2023-04-15T05:24:47;12.07;;;3.72;;
18752;SDS011;9505;50.882;5.350;2023-04-15T05:27:12;16.60;;;4.20;;
18752;SDS011;9505;50.882;5.350;2023-04-15T05:29:38;12.55;;;3.75;;
18752;SDS011;9505;50.882;5.350;2023-04-15T05:32:03;16.08;;;4.40;;
18752;SDS011;9505;50.882;5.350;2023-04-15T05:34:29;22.13;;;4.65;;
18752;SDS011;9505;50.882;5.350;2023-04-15T05:36:55;14.55;;;3.78;;
18752;SDS011;9505;50.882;5.350;2023-04-15T05:39:21;18.77;;;4.38;;
18752;SDS011;9505;50.882;5.350;2023-04-15T05:41:46;17.05;;;3.50;;
18752;SDS011;9505;50.882;5.350;2023-04-15T05:44:12;18.10;;;3.97;;
18752;SDS011;9505;50.882;5.350;2023-04-15T05:46:37;17.83;;;3.72;;
18752;SDS011;9505;50.882;5.350;2023-04-15T05:49:03;19.00;;;4.13;;
18752;SDS011;9505;50.882;5.350;2023-04-15T05:51:28;16.98;;;4.28;;
18752;SDS011;9505;50.882;5.350;2023-04-15T05:53:54;13.50;;;3.05;;
18752;SDS011;9505;50.882;5.350;2023-04-15T05:56:20;17.70;;;3.90;;
18752;SDS011;9505;50.882;5.350;2023-04-15T05:58:46;17.73;;;4.30;;
18752;SDS011;9505;50.882;5.350;2023-04-15T06:01:11;17.70;;;3.75;;
18752;SDS011;9505;50.882;5.350;2023-04-15T06:03:37;23.67;;;4.35;;
18752;SDS011;9505;50.882;5.350;2023-04-15T06:06:03;11.63;;;3.40;;
18752;SDS011;9505;50.882;5.350;2023-04-15T06:08:29;16.48;;;4.00;;
18752;SDS011;9505;50.882;5.350;2023-04-15T06:10:55;22.02;;;3.83;;
18752;SDS011;9505;50.882;5.350;2023-04-15T06:13:20;18.00;;;3.78;;
18752;SDS011;9505;50.882;5.350;2023-04-15T06:15:46;16.58;;;3.85;;
18752;SDS011;9505;50.882;5.350;2023-04-15T06:18:12;17.20;;;4.32;;
18752;SDS011;9505;50.882;5.350;2023-04-15T06:20:38;24.65;;;4.80;;
18752;SDS011;9505;50.882;5.350;2023-04-15T06:23:03;16.15;;;4.00;;
18752;SDS011;9505;50.882;5.350;2023-04-15T06:25:29;19.45;;;4.13;;
18752;SDS011;9505;50.882;5.350;2023-04-15T06:27:55;17.65;;;3.90;;
18752;SDS011;9505;50.882;5.350;2023-04-15T06:30:20;20.10;;;3.72;;
18752;SDS011;9505;50.882;5.350;2023-04-15T06:32:46;22.58;;;3.92;;
18752;SDS011;9505;50.882;5.350;2023-04-15T06:35:12;21.60;;;4.43;;
18752;SDS011;9505;50.882;5.350;2023-04-15T06:37:38;17.40;;;4.63;;
18752;SDS011;9505;50.882;5.350;2023-04-15T06:40:04;14.07;;;3.92;;
18752;SDS011;9505;50.882;5.350;2023-04-15T06:42:30;16.67;;;4.35;;
18752;SDS011;9505;50.882;5.350;2023-04-15T06:44:56;15.90;;;4.25;;
18752;SDS011;9505;50.882;5.350;2023-04-15T06:47:21;20.85;;;4.95;;
18752;SDS011;9505;50.882;5.350;2023-04-15T06:49:47;15.50;;;4.80;;
18752;SDS011;9505;50.882;5.350;2023-04-15T06:52:12;20.25;;;4.72;;
18752;SDS011;9505;50.882;5.350;2023-04-15T06:54:38;20.00;;;5.47;;
18752;SDS011;9505;50.882;5.350;2023-04-15T06:57:04;15.48;;;4.78;;
18752;SDS011;9505;50.882;5.350;2023-04-15T06:59:31;24.70;;;5.15;;
18752;SDS011;9505;50.882;5.350;2023-04-15T07:01:56;16.35;;;4.65;;
18752;SDS011;9505;50.882;5.350;2023-04-15T07:04:22;19.42;;;4.80;;
18752;SDS011;9505;50.882;5.350;2023-04-15T07:06:48;13.60;;;4.55;;
18752;SDS011;9505;50.882;5.350;2023-04-15T07:09:14;16.30;;;4.05;;
18752;SDS011;9505;50.882;5.350;2023-04-15T07:11:39;17.52;;;4.65;;
18752;SDS011;9505;50.882;5.350;2023-04-15T07:14:05;21.40;;;4.65;;
18752;SDS011;9505;50.882;5.350;2023-04-15T07:16:30;18.80;;;4.75;;
18752;SDS011;9505;50.882;5.350;2023-04-15T07:18:56;14.45;;;4.20;;
18752;SDS011;9505;50.882;5.350;2023-04-15T07:21:22;16.85;;;5.03;;
18752;SDS011;9505;50.882;5.350;2023-04-15T07:23:49;17.70;;;4.68;;
18752;SDS011;9505;50.882;5.350;2023-04-15T07:26:14;19.50;;;4.45;;
18752;SDS011;9505;50.882;5.350;2023-04-15T07:28:40;15.77;;;4.18;;
18752;SDS011;9505;50.882;5.350;2023-04-15T07:31:06;14.57;;;3.90;;
18752;SDS011;9505;50.882;5.350;2023-04-15T07:33:31;35.20;;;6.85;;
18752;SDS011;9505;50.882;5.350;2023-04-15T07:35:57;17.65;;;5.22;;
18752;SDS011;9505;50.882;5.350;2023-04-15T07:38:22;29.30;;;5.85;;
18752;SDS011;9505;50.882;5.350;2023-04-15T07:40:48;19.35;;;4.72;;
18752;SDS011;9505;50.882;5.350;2023-04-15T07:43:14;14.88;;;4.32;;
18752;SDS011;9505;50.882;5.350;2023-04-15T07:45:40;20.48;;;4.88;;
18752;SDS011;9505;50.882;5.350;2023-04-15T07:48:06;17.80;;;4.63;;
18752;SDS011;9505;50.882;5.350;2023-04-15T07:50:32;19.42;;;4.85;;
18752;SDS011;9505;50.882;5.350;2023-04-15T07:52:58;18.42;;;4.55;;
18752;SDS011;9505;50.882;5.350;2023-04-15T07:55:23;18.25;;;4.85;;
18752;SDS011;9505;50.882;5.350;2023-04-15T07:57:49;25.58;;;5.10;;
18752;SDS011;9505;50.882;5.350;2023-04-15T08:00:15;41.25;;;7.07;;
18752;SDS011;9505;50.882;5.350;2023-04-15T08:02:41;18.58;;;4.78;;
18752;SDS011;9505;50.882;5.350;2023-04-15T08:05:07;19.55;;;4.97;;
18752;SDS011;9505;50.882;5.350;2023-04-15T08:07:35;21.77;;;5.35;;
18752;SDS011;9505;50.882;5.350;2023-04-15T08:10:01;25.52;;;5.88;;
18752;SDS011;9505;50.882;5.350;2023-04-15T08:12:27;23.35;;;5.25;;
18752;SDS011;9505;50.882;5.350;2023-04-15T08:14:53;22.75;;;5.32;;
18752;SDS011;9505;50.882;5.350;2023-04-15T08:17:19;25.75;;;5.57;;
18752;SDS011;9505;50.882;5.350;2023-04-15T08:19:45;22.40;;;5.40;;
18752;SDS011;9505;50.882;5.350;2023-04-15T08:22:12;33.22;;;6.68;;
18752;SDS011;9505;50.882;5.350;2023-04-15T08:24:38;41.38;;;6.85;;
18752;SDS011;9505;50.882;5.350;2023-04-15T08:27:03;21.98;;;5.45;;
18752;SDS011;9505;50.882;5.350;2023-04-15T08:29:30;17.15;;;5.18;;
18752;SDS011;9505;50.882;5.350;2023-04-15T08:31:56;25.45;;;5.82;;
18752;SDS011;9505;50.882;5.350;2023-04-15T08:34:23;22.08;;;6.28;;
18752;SDS011;9505;50.882;5.350;2023-04-15T08:36:49;26.83;;;6.57;;
18752;SDS011;9505;50.882;5.350;2023-04-15T08:39:14;21.25;;;6.85;;
18752;SDS011;9505;50.882;5.350;2023-04-15T08:42:26;22.58;;;6.78;;
18752;SDS011;9505;50.882;5.350;2023-04-15T08:44:33;26.77;;;7.45;;
18752;SDS011;9505;50.882;5.350;2023-04-15T08:47:01;24.50;;;6.55;;
18752;SDS011;9505;50.882;5.350;2023-04-15T08:49:27;26.30;;;7.55;;
18752;SDS011;9505;50.882;5.350;2023-04-15T08:51:53;35.35;;;7.78;;
18752;SDS011;9505;50.882;5.350;2023-04-15T08:54:20;39.65;;;8.60;;
18752;SDS011;9505;50.882;5.350;2023-04-15T08:56:46;23.65;;;7.25;;
18752;SDS011;9505;50.882;5.350;2023-04-15T08:59:13;19.90;;;6.28;;
18752;SDS011;9505;50.882;5.350;2023-04-15T09:01:40;27.10;;;6.90;;
18752;SDS011;9505;50.882;5.350;2023-04-15T09:04:06;25.85;;;7.13;;
18752;SDS011;9505;50.882;5.350;2023-04-15T09:06:32;19.00;;;6.30;;
18752;SDS011;9505;50.882;5.350;2023-04-15T09:08:58;20.65;;;6.13;;
18752;SDS011;9505;50.882;5.350;2023-04-15T09:11:24;19.25;;;5.55;;
18752;SDS011;9505;50.882;5.350;2023-04-15T09:13:50;21.50;;;5.95;;
18752;SDS011;9505;50.882;5.350;2023-04-15T09:16:16;23.65;;;6.18;;
18752;SDS011;9505;50.882;5.350;2023-04-15T09:18:42;21.20;;;5.65;;
18752;SDS011;9505;50.882;5.350;2023-04-15T09:21:09;19.83;;;4.63;;
18752;SDS011;9505;50.882;5.350;2023-04-15T09:23:39;20.63;;;5.50;;
18752;SDS011;9505;50.882;5.350;2023-04-15T09:26:17;27.83;;;6.93;;
18752;SDS011;9505;50.882;5.350;2023-04-15T09:28:43;34.10;;;6.95;;
18752;SDS011;9505;50.882;5.350;2023-04-15T09:31:08;35.85;;;7.20;;
18752;SDS011;9505;50.882;5.350;2023-04-15T09:33:35;20.02;;;6.00;;
18752;SDS011;9505;50.882;5.350;2023-04-15T09:36:17;21.20;;;5.00;;
18752;SDS011;9505;50.882;5.350;2023-04-15T09:38:56;28.98;;;5.18;;
18752;SDS011;9505;50.882;5.350;2023-04-15T09:41:24;20.73;;;4.60;;
18752;SDS011;9505;50.882;5.350;2023-04-15T09:43:51;22.23;;;5.35;;
18752;SDS011;9505;50.882;5.350;2023-04-15T09:46:17;21.58;;;5.32;;
18752;SDS011;9505;50.882;5.350;2023-04-15T09:48:43;20.40;;;4.47;;
18752;SDS011;9505;50.882;5.350;2023-04-15T09:51:08;16.42;;;4.75;;
18752;SDS011;9505;50.882;5.350;2023-04-15T09:53:34;20.58;;;4.35;;
18752;SDS011;9505;50.882;5.350;2023-04-15T09:56:02;20.02;;;5.38;;
18752;SDS011;9505;50.882;5.350;2023-04-15T09:58:29;22.58;;;5.50;;
18752;SDS011;9505;50.882;5.350;2023-04-15T10:00:56;20.67;;;5.03;;
18752;SDS011;9505;50.882;5.350;2023-04-15T10:05:52;25.10;;;4.60;;
18752;SDS011;9505;50.882;5.350;2023-04-15T10:08:21;23.17;;;4.97;;
18752;SDS011;9505;50.882;5.350;2023-04-15T10:10:49;21.67;;;4.80;;
18752;SDS011;9505;50.882;5.350;2023-04-15T10:13:16;16.75;;;4.32;;
18752;SDS011;9505;50.882;5.350;2023-04-15T10:15:44;19.25;;;3.92;;
18752;SDS011;9505;50.882;5.350;2023-04-15T10:18:15;19.73;;;4.15;;
18752;SDS011;9505;50.882;5.350;2023-04-15T10:20:43;26.13;;;4.50;;
18752;SDS011;9505;50.882;5.350;2023-04-15T10:23:10;16.98;;;3.55;;
18752;SDS011;9505;50.882;5.350;2023-04-15T10:25:36;20.70;;;3.90;;
18752;SDS011;9505;50.882;5.350;2023-04-15T10:28:03;14.45;;;3.22;;
18752;SDS011;9505;50.882;5.350;2023-04-15T10:30:31;11.30;;;2.65;;
18752;SDS011;9505;50.882;5.350;2023-04-15T10:32:57;12.65;;;2.92;;
18752;SDS011;9505;50.882;5.350;2023-04-15T10:35:24;12.32;;;2.75;;
18752;SDS011;9505;50.882;5.350;2023-04-15T10:37:50;6.68;;;2.95;;
18752;SDS011;9505;50.882;5.350;2023-04-15T10:40:29;12.70;;;3.08;;
18752;SDS011;9505;50.882;5.350;2023-04-15T10:43:02;13.52;;;3.10;;
18752;SDS011;9505;50.882;5.350;2023-04-15T10:45:35;15.38;;;2.63;;
18752;SDS011;9505;50.882;5.350;2023-04-15T10:48:02;12.00;;;2.47;;
18752;SDS011;9505;50.882;5.350;2023-04-15T10:50:30;9.40;;;2.30;;
18752;SDS011;9505;50.882;5.350;2023-04-15T10:52:57;16.85;;;2.53;;
18752;SDS011;9505;50.882;5.350;2023-04-15T10:55:24;12.95;;;2.80;;
18752;SDS011;9505;50.882;5.350;2023-04-15T10:57:55;13.40;;;2.95;;
18752;SDS011;9505;50.882;5.350;2023-04-15T11:00:25;10.60;;;2.80;;
18752;SDS011;9505;50.882;5.350;2023-04-15T11:06:03;21.55;;;3.70;;
18752;SDS011;9505;50.882;5.350;2023-04-15T11:11:22;13.95;;;2.97;;
18752;SDS011;9505;50.882;5.350;2023-04-15T11:14:07;12.40;;;3.10;;
18752;SDS011;9505;50.882;5.350;2023-04-15T11:16:43;13.40;;;3.05;;
18752;SDS011;9505;50.882;5.350;2023-04-15T11:19:09;13.63;;;3.38;;
18752;SDS011;9505;50.882;5.350;2023-04-15T11:21:35;18.35;;;3.92;;
18752;SDS011;9505;50.882;5.350;2023-04-15T11:24:00;17.40;;;3.72;;
18752;SDS011;9505;50.882;5.350;2023-04-15T11:26:27;12.10;;;3.08;;
18752;SDS011;9505;50.882;5.350;2023-04-15T11:28:53;16.05;;;3.70;;
18752;SDS011;9505;50.882;5.350;2023-04-15T11:31:19;22.10;;;4.15;;
18752;SDS011;9505;50.882;5.350;2023-04-15T11:33:45;14.00;;;3.55;;
18752;SDS011;9505;50.882;5.350;2023-04-15T11:36:26;23.73;;;4.25;;
18752;SDS011;9505;50.882;5.350;2023-04-15T11:38:53;14.05;;;3.28;;
18752;SDS011;9505;50.882;5.350;2023-04-15T11:41:21;11.73;;;2.80;;
18752;SDS011;9505;50.882;5.350;2023-04-15T11:43:48;16.50;;;3.20;;
18752;SDS011;9505;50.882;5.350;2023-04-15T11:46:15;66.05;;;7.95;;
18752;SDS011;9505;50.882;5.350;2023-04-15T11:48:44;26.05;;;4.07;;
18752;SDS011;9505;50.882;5.350;2023-04-15T11:51:11;13.88;;;2.78;;
18752;SDS011;9505;50.882;5.350;2023-04-15T11:53:44;14.95;;;3.15;;
18752;SDS011;9505;50.882;5.350;2023-04-15T11:56:19;8.60;;;2.17;;
18752;SDS011;9505;50.882;5.350;2023-04-15T11:58:46;11.15;;;2.10;;
18752;SDS011;9505;50.882;5.350;2023-04-15T12:01:13;30.27;;;4.03;;
18752;SDS011;9505;50.882;5.350;2023-04-15T12:03:43;45.55;;;5.60;;
18752;SDS011;9505;50.882;5.350;2023-04-15T12:06:11;43.55;;;5.20;;
18752;SDS011;9505;50.882;5.350;2023-04-15T12:16:55;36.55;;;4.60;;
18752;SDS011;9505;50.882;5.350;2023-04-15T12:22:02;40.63;;;4.93;;
18752;SDS011;9505;50.882;5.350;2023-04-15T12:24:31;50.63;;;6.15;;
18752;SDS011;9505;50.882;5.350;2023-04-15T12:27:08;50.10;;;5.88;;
18752;SDS011;9505;50.882;5.350;2023-04-15T12:29:36;35.25;;;4.22;;
18752;SDS011;9505;50.882;5.350;2023-04-15T12:32:15;47.10;;;5.00;;
18752;SDS011;9505;50.882;5.350;2023-04-15T12:34:42;52.85;;;6.18;;
18752;SDS011;9505;50.882;5.350;2023-04-15T12:37:13;50.45;;;6.05;;
18752;SDS011;9505;50.882;5.350;2023-04-15T12:39:40;31.75;;;4.45;;
18752;SDS011;9505;50.882;5.350;2023-04-15T12:42:07;14.35;;;2.65;;
18752;SDS011;9505;50.882;5.350;2023-04-15T12:44:34;22.73;;;3.60;;
18752;SDS011;9505;50.882;5.350;2023-04-15T12:47:00;52.55;;;6.70;;
18752;SDS011;9505;50.882;5.350;2023-04-15T12:49:26;50.80;;;6.53;;
18752;SDS011;9505;50.882;5.350;2023-04-15T12:51:53;32.45;;;4.15;;
18752;SDS011;9505;50.882;5.350;2023-04-15T12:54:20;12.07;;;2.38;;
18752;SDS011;9505;50.882;5.350;2023-04-15T12:56:46;26.42;;;3.45;;
18752;SDS011;9505;50.882;5.350;2023-04-15T12:59:13;44.03;;;5.07;;
18752;SDS011;9505;50.882;5.350;2023-04-15T13:01:40;46.58;;;5.50;;
18752;SDS011;9505;50.882;5.350;2023-04-15T13:04:06;17.17;;;2.47;;
18752;SDS011;9505;50.882;5.350;2023-04-15T13:06:31;8.02;;;1.60;;
18752;SDS011;9505;50.882;5.350;2023-04-15T13:09:00;44.83;;;5.47;;
18752;SDS011;9505;50.882;5.350;2023-04-15T13:11:27;45.92;;;5.47;;
18752;SDS011;9505;50.882;5.350;2023-04-15T13:13:55;45.28;;;5.57;;
18752;SDS011;9505;50.882;5.350;2023-04-15T13:16:22;24.70;;;3.60;;
18752;SDS011;9505;50.882;5.350;2023-04-15T13:18:48;9.88;;;1.92;;
18752;SDS011;9505;50.882;5.350;2023-04-15T13:21:14;38.58;;;4.95;;
18752;SDS011;9505;50.882;5.350;2023-04-15T13:23:40;48.25;;;5.68;;
18752;SDS011;9505;50.882;5.350;2023-04-15T13:26:06;42.63;;;5.43;;
18752;SDS011;9505;50.882;5.350;2023-04-15T13:28:32;10.05;;;2.17;;
18752;SDS011;9505;50.882;5.350;2023-04-15T13:30:58;20.25;;;3.15;;
18752;SDS011;9505;50.882;5.350;2023-04-15T13:33:24;47.42;;;5.72;;
18752;SDS011;9505;50.882;5.350;2023-04-15T13:35:50;49.85;;;5.95;;
18752;SDS011;9505;50.882;5.350;2023-04-15T13:38:16;18.27;;;2.83;;
18752;SDS011;9505;50.882;5.350;2023-04-15T13:40:41;11.43;;;2.20;;
18752;SDS011;9505;50.882;5.350;2023-04-15T13:43:07;45.92;;;5.28;;
18752;SDS011;9505;50.882;5.350;2023-04-15T13:45:33;52.17;;;6.18;;
18752;SDS011;9505;50.882;5.350;2023-04-15T13:47:58;35.22;;;4.55;;
18752;SDS011;9505;50.882;5.350;2023-04-15T13:50:24;11.35;;;2.10;;
18752;SDS011;9505;50.882;5.350;2023-04-15T13:52:50;31.80;;;4.22;;
18752;SDS011;9505;50.882;5.350;2023-04-15T13:55:15;50.67;;;6.18;;
18752;SDS011;9505;50.882;5.350;2023-04-15T13:57:41;34.65;;;4.82;;
18752;SDS011;9505;50.882;5.350;2023-04-15T14:00:07;18.63;;;3.00;;
18752;SDS011;9505;50.882;5.350;2023-04-15T14:02:33;18.90;;;2.88;;
18752;SDS011;9505;50.882;5.350;2023-04-15T14:04:58;45.80;;;5.47;;
18752;SDS011;9505;50.882;5.350;2023-04-15T14:07:24;35.65;;;4.50;;
18752;SDS011;9505;50.882;5.350;2023-04-15T14:09:50;20.27;;;3.03;;
18752;SDS011;9505;50.882;5.350;2023-04-15T14:12:16;11.63;;;1.98;;
18752;SDS011;9505;50.882;5.350;2023-04-15T14:14:41;30.38;;;4.22;;
18752;SDS011;9505;50.882;5.350;2023-04-15T14:17:08;54.00;;;6.63;;
18752;SDS011;9505;50.882;5.350;2023-04-15T14:19:34;29.75;;;3.78;;
18752;SDS011;9505;50.882;5.350;2023-04-15T14:22:00;22.08;;;3.17;;
18752;SDS011;9505;50.882;5.350;2023-04-15T14:24:25;18.90;;;2.75;;
18752;SDS011;9505;50.882;5.350;2023-04-15T14:26:51;44.58;;;5.43;;
18752;SDS011;9505;50.882;5.350;2023-04-15T14:29:17;44.28;;;5.22;;
18752;SDS011;9505;50.882;5.350;2023-04-15T14:31:43;12.45;;;2.03;;
18752;SDS011;9505;50.882;5.350;2023-04-15T14:34:09;16.83;;;2.63;;
18752;SDS011;9505;50.882;5.350;2023-04-15T14:36:35;29.15;;;3.80;;
18752;SDS011;9505;50.882;5.350;2023-04-15T14:39:00;45.15;;;5.28;;
18752;SDS011;9505;50.882;5.350;2023-04-15T14:41:28;32.00;;;4.18;;
18752;SDS011;9505;50.882;5.350;2023-04-15T14:43:54;13.57;;;1.88;;
18752;SDS011;9505;50.882;5.350;2023-04-15T14:46:20;13.13;;;2.38;;
18752;SDS011;9505;50.882;5.350;2023-04-15T14:48:46;36.97;;;4.47;;
18752;SDS011;9505;50.882;5.350;2023-04-15T14:51:12;43.33;;;5.05;;
18752;SDS011;9505;50.882;5.350;2023-04-15T14:53:37;35.60;;;4.47;;
18752;SDS011;9505;50.882;5.350;2023-04-15T14:56:03;10.60;;;2.05;;
18752;SDS011;9505;50.882;5.350;2023-04-15T14:58:29;26.95;;;3.50;;
18752;SDS011;9505;50.882;5.350;2023-04-15T15:00:56;36.22;;;4.60;;
18752;SDS011;9505;50.882;5.350;2023-04-15T15:03:21;38.28;;;4.88;;